createdAt,value
2022-11-19T00:00:16.856Z,19.75
2022-11-19T00:02:18.394Z,26.02
2022-11-19T00:04:19.964Z,23.50
2022-11-19T00:06:26.470Z,15.75
2022-11-19T00:08:27.963Z,18.88
2022-11-19T00:10:29.373Z,17.63
2022-11-19T00:12:49.649Z,19.15
2022-11-19T00:14:51.063Z,10.77
2022-11-19T00:16:52.597Z,16.60
2022-11-19T00:18:54.090Z,12.48
2022-11-19T00:20:56.442Z,9.23
2022-11-19T00:22:58.433Z,12.50
2022-11-19T00:24:59.866Z,12.20
2022-11-19T00:27:01.442Z,9.77
2022-11-19T00:29:03.595Z,9.10
2022-11-19T00:31:07.786Z,15.13
2022-11-19T00:33:09.262Z,12.25
2022-11-19T00:35:11.296Z,11.60
2022-11-19T00:37:12.755Z,10.65
2022-11-19T00:39:14.266Z,9.88
2022-11-19T00:41:15.736Z,10.32
2022-11-19T00:43:36.276Z,12.02
2022-11-19T00:45:37.787Z,10.10
2022-11-19T00:47:39.254Z,14.25
2022-11-19T00:49:40.854Z,6.10
2022-11-19T00:51:42.346Z,11.48
2022-11-19T00:53:43.996Z,14.00
2022-11-19T00:55:45.507Z,11.65
2022-11-19T00:57:46.991Z,14.90
2022-11-19T00:59:48.425Z,12.18
2022-11-19T01:01:49.867Z,6.85
2022-11-19T01:03:52.019Z,7.93
2022-11-19T01:05:53.511Z,7.00
2022-11-19T01:07:55.023Z,8.80
2022-11-19T01:09:56.475Z,6.13
2022-11-19T01:11:57.981Z,5.32
2022-11-19T01:14:01.125Z,6.80
2022-11-19T01:16:15.271Z,6.93
2022-11-19T01:18:18.070Z,6.40
2022-11-19T01:20:19.611Z,9.20
2022-11-19T01:22:21.098Z,8.18
2022-11-19T01:24:22.657Z,5.35
2022-11-19T01:26:24.836Z,11.60
2022-11-19T01:28:26.416Z,8.38
2022-11-19T01:30:28.148Z,13.77
2022-11-19T01:32:29.553Z,8.75
2022-11-19T01:34:31.082Z,10.25
2022-11-19T01:36:32.519Z,7.78
2022-11-19T01:38:34.277Z,11.77
2022-11-19T01:40:43.926Z,9.23
2022-11-19T01:42:51.338Z,8.02
2022-11-19T01:45:03.192Z,11.50
2022-11-19T01:47:04.638Z,10.43
2022-11-19T01:49:13.066Z,14.95
2022-11-19T01:51:35.669Z,14.13
2022-11-19T01:53:37.165Z,10.02
2022-11-19T01:55:41.530Z,9.60
2022-11-19T01:57:43.101Z,6.07
2022-11-19T01:59:48.977Z,10.85
2022-11-19T02:01:50.516Z,10.43
2022-11-19T02:03:52.537Z,7.18
2022-11-19T02:05:54.433Z,6.05
2022-11-19T02:07:58.837Z,9.40
2022-11-19T02:10:03.129Z,11.98
2022-11-19T02:12:29.493Z,10.85
2022-11-19T02:14:54.531Z,8.98
2022-11-19T02:17:13.608Z,8.45
2022-11-19T02:19:52.586Z,8.50
2022-11-19T02:22:23.901Z,8.63
2022-11-19T02:24:31.071Z,8.85
2022-11-19T02:26:59.444Z,8.02
2022-11-19T02:29:27.147Z,10.18
2022-11-19T02:31:41.051Z,9.88
2022-11-19T02:34:00.166Z,10.90
2022-11-19T02:36:26.286Z,11.88
2022-11-19T02:38:58.134Z,9.93
2022-11-19T02:41:26.288Z,10.25
2022-11-19T02:43:35.700Z,9.63
2022-11-19T02:45:46.969Z,10.40
2022-11-19T02:47:53.282Z,11.65
2022-11-19T02:49:59.698Z,11.45
2022-11-19T02:52:01.778Z,11.45
2022-11-19T02:54:05.025Z,9.40
2022-11-19T02:56:33.576Z,10.82
2022-11-19T02:58:56.695Z,10.40
2022-11-19T03:01:17.944Z,10.02
2022-11-19T03:03:40.448Z,10.13
2022-11-19T03:05:48.496Z,10.70
2022-11-19T03:07:50.582Z,10.55
2022-11-19T03:09:55.958Z,10.27
2022-11-19T03:12:23.294Z,11.15
2022-11-19T03:14:48.178Z,7.88
2022-11-19T03:16:57.187Z,10.15
2022-11-19T03:19:05.401Z,7.20
2022-11-19T03:21:13.407Z,9.80
2022-11-19T03:23:32.006Z,8.27
2022-11-19T03:25:40.581Z,7.50
2022-11-19T03:27:45.742Z,5.78
2022-11-19T03:29:51.723Z,6.95
2022-11-19T03:32:00.728Z,7.18
2022-11-19T03:34:08.116Z,3.15
2022-11-19T03:36:16.908Z,7.55
2022-11-19T03:38:41.107Z,10.48
2022-11-19T03:40:44.481Z,10.45
2022-11-19T03:42:49.819Z,12.18
2022-11-19T03:44:56.970Z,9.57
2022-11-19T03:47:04.334Z,9.68
2022-11-19T03:49:09.258Z,6.20
2022-11-19T03:51:20.075Z,9.85
2022-11-19T03:53:22.342Z,7.95
2022-11-19T03:55:33.043Z,8.63
2022-11-19T03:57:34.468Z,11.65
2022-11-19T03:59:36.049Z,12.93
2022-11-19T04:01:38.193Z,11.88
2022-11-19T04:03:40.025Z,7.78
2022-11-19T04:05:41.527Z,10.88
2022-11-19T04:07:43.032Z,13.20
2022-11-19T04:09:44.926Z,15.30
2022-11-19T04:13:46.827Z,10.38
2022-11-19T04:15:48.264Z,13.93
2022-11-19T04:17:49.823Z,14.43
2022-11-19T04:19:51.321Z,12.70
2022-11-19T04:21:52.839Z,15.13
2022-11-19T04:23:54.437Z,15.35
2022-11-19T04:25:55.860Z,14.98
2022-11-19T04:27:57.274Z,14.48
2022-11-19T04:29:58.794Z,14.38
2022-11-19T04:32:00.227Z,14.95
2022-11-19T04:34:01.806Z,14.43
2022-11-19T04:36:03.647Z,15.52
2022-11-19T04:38:05.119Z,14.48
2022-11-19T04:40:07.329Z,10.80
2022-11-19T04:42:08.800Z,11.45
2022-11-19T04:44:10.254Z,12.65
2022-11-19T04:46:11.850Z,15.43
2022-11-19T04:48:13.303Z,14.73
2022-11-19T04:50:14.742Z,14.70
2022-11-19T04:52:16.203Z,14.80
2022-11-19T04:54:17.726Z,15.68
2022-11-19T04:56:19.227Z,17.02
2022-11-19T04:58:20.669Z,15.48
2022-11-19T05:00:22.102Z,13.82
2022-11-19T05:02:23.526Z,15.77
2022-11-19T05:04:24.948Z,13.98
2022-11-19T05:06:26.427Z,14.15
2022-11-19T05:08:27.945Z,14.00
2022-11-19T05:10:29.440Z,14.15
2022-11-19T05:12:30.988Z,14.07
2022-11-19T05:14:32.566Z,14.02
2022-11-19T05:16:34.115Z,14.35
2022-11-19T05:18:35.730Z,14.32
2022-11-19T05:20:37.168Z,13.43
2022-11-19T05:22:38.634Z,14.50
2022-11-19T05:24:40.134Z,14.10
2022-11-19T05:26:41.567Z,14.10
2022-11-19T05:28:43.066Z,12.82
2022-11-19T05:30:44.603Z,13.23
2022-11-19T05:32:47.233Z,10.95
2022-11-19T05:34:48.676Z,14.82
2022-11-19T05:36:50.130Z,14.68
2022-11-19T05:38:51.702Z,13.75
2022-11-19T05:40:53.117Z,12.60
2022-11-19T05:42:54.685Z,14.18
2022-11-19T05:44:56.111Z,13.15
2022-11-19T05:46:59.726Z,14.13
2022-11-19T05:49:01.186Z,14.25
2022-11-19T05:51:03.010Z,14.77
2022-11-19T05:53:05.272Z,15.05
2022-11-19T05:55:07.140Z,11.70
2022-11-19T05:57:08.592Z,14.90
2022-11-19T05:59:10.020Z,13.45
2022-11-19T06:01:11.549Z,13.75
2022-11-19T06:03:13.050Z,14.30
2022-11-19T06:05:14.681Z,11.23
2022-11-19T06:07:16.311Z,15.57
2022-11-19T06:09:17.965Z,13.80
2022-11-19T06:11:38.035Z,15.10
2022-11-19T06:13:39.524Z,14.13
2022-11-19T06:15:40.936Z,13.98
2022-11-19T06:17:42.663Z,14.80
2022-11-19T06:19:44.112Z,13.75
2022-11-19T06:21:46.256Z,13.25
2022-11-19T06:23:47.695Z,15.07
2022-11-19T06:25:50.365Z,13.38
2022-11-19T06:27:51.806Z,12.40
2022-11-19T06:29:56.193Z,13.00
2022-11-19T06:31:57.909Z,13.65
2022-11-19T06:33:59.973Z,12.75
2022-11-19T06:36:01.389Z,13.35
2022-11-19T06:38:02.859Z,12.90
2022-11-19T06:40:04.776Z,12.90
2022-11-19T06:42:25.249Z,13.00
2022-11-19T06:44:26.715Z,13.63
2022-11-19T06:46:28.269Z,11.10
2022-11-19T06:48:29.714Z,8.85
2022-11-19T06:50:31.679Z,12.07
2022-11-19T06:52:33.139Z,12.63
2022-11-19T06:54:36.651Z,13.25
2022-11-19T06:56:40.352Z,14.02
2022-11-19T06:58:41.789Z,14.57
2022-11-19T07:00:43.291Z,19.85
2022-11-19T07:02:44.804Z,26.38
2022-11-19T07:04:46.220Z,20.90
2022-11-19T07:06:48.226Z,23.63
2022-11-19T07:08:49.768Z,18.27
2022-11-19T07:10:51.477Z,22.25
2022-11-19T07:12:52.893Z,23.48
2022-11-19T07:14:55.262Z,23.00
2022-11-19T07:16:59.049Z,11.73
2022-11-19T07:19:02.330Z,15.60
2022-11-19T07:21:03.851Z,14.38
2022-11-19T07:23:10.497Z,13.57
2022-11-19T07:25:12.989Z,12.15
2022-11-19T07:27:15.818Z,13.38
2022-11-19T07:29:17.924Z,13.57
2022-11-19T07:31:19.654Z,12.23
2022-11-19T07:33:21.073Z,13.40
2022-11-19T07:35:22.579Z,12.52
2022-11-19T07:37:24.080Z,13.32
2022-11-19T07:39:25.620Z,13.70
2022-11-19T07:41:45.847Z,14.30
2022-11-19T07:43:47.274Z,15.35
2022-11-19T07:45:49.058Z,15.88
2022-11-19T07:47:50.571Z,13.10
2022-11-19T07:49:52.034Z,15.07
2022-11-19T07:51:54.456Z,15.18
2022-11-19T07:53:56.348Z,14.18
2022-11-19T07:56:00.298Z,16.45
2022-11-19T07:58:01.803Z,17.42
2022-11-19T08:00:05.855Z,18.67
2022-11-19T08:02:10.295Z,17.88
2022-11-19T08:04:11.786Z,15.07
2022-11-19T08:06:15.457Z,15.30
2022-11-19T08:08:16.945Z,14.20
2022-11-19T08:10:18.515Z,14.02
2022-11-19T08:12:19.976Z,24.30
2022-11-19T08:14:21.392Z,20.27
2022-11-19T08:16:41.324Z,16.50
2022-11-19T08:18:44.868Z,15.07
2022-11-19T08:20:48.388Z,16.10
2022-11-19T08:22:49.830Z,16.92
2022-11-19T08:24:51.245Z,15.50
2022-11-19T08:26:52.765Z,16.10
2022-11-19T08:28:54.518Z,17.75
2022-11-19T08:30:56.046Z,16.73
2022-11-19T08:32:57.572Z,14.70
2022-11-19T08:34:59.037Z,14.38
2022-11-19T08:37:00.649Z,19.15
2022-11-19T08:39:04.181Z,16.90
2022-11-19T08:41:24.517Z,28.95
2022-11-19T08:43:25.986Z,16.98
2022-11-19T08:45:38.508Z,18.08
2022-11-19T08:47:39.937Z,16.63
2022-11-19T08:49:41.607Z,16.55
2022-11-19T08:51:43.070Z,15.00
2022-11-19T08:53:44.553Z,17.23
2022-11-19T08:55:50.821Z,21.05
2022-11-19T08:57:52.422Z,21.77
2022-11-19T08:59:53.862Z,18.52
2022-11-19T09:01:55.317Z,17.77
2022-11-19T09:03:56.901Z,17.40
2022-11-19T09:05:59.899Z,13.82
2022-11-19T09:08:01.448Z,13.10
2022-11-19T09:10:02.889Z,12.85
2022-11-19T09:12:04.634Z,10.90
2022-11-19T09:14:06.167Z,10.75
2022-11-19T09:16:08.976Z,10.77
2022-11-19T09:18:10.399Z,11.88
2022-11-19T09:20:12.373Z,16.60
2022-11-19T09:22:13.879Z,12.05
2022-11-19T09:24:15.517Z,11.88
2022-11-19T09:26:18.217Z,12.98
2022-11-19T09:28:19.629Z,10.73
2022-11-19T09:30:21.103Z,12.60
2022-11-19T09:32:25.387Z,13.65
2022-11-19T09:34:27.440Z,11.85
2022-11-19T09:36:29.153Z,10.45
2022-11-19T09:38:32.005Z,9.43
2022-11-19T09:40:33.502Z,9.30
2022-11-19T09:42:49.267Z,11.85
2022-11-19T09:45:07.541Z,16.45
2022-11-19T09:47:27.241Z,33.70
2022-11-19T09:51:34.109Z,12.85
2022-11-19T09:53:51.342Z,13.73
2022-11-19T09:55:53.956Z,16.58
2022-11-19T09:57:58.196Z,23.40
2022-11-19T10:00:01.878Z,12.63
2022-11-19T10:02:16.275Z,16.50
2022-11-19T10:04:23.021Z,11.73
2022-11-19T10:06:48.987Z,9.00
2022-11-19T10:09:06.270Z,9.60
2022-11-19T10:11:13.793Z,11.82
2022-11-19T10:13:31.234Z,10.57
2022-11-19T10:15:38.255Z,10.63
2022-11-19T10:17:53.928Z,11.75
2022-11-19T10:20:32.336Z,10.98
2022-11-19T10:23:02.854Z,9.35
2022-11-19T10:25:16.149Z,12.88
2022-11-19T10:27:49.958Z,7.93
2022-11-19T10:29:54.953Z,8.15
2022-11-19T10:32:20.065Z,7.00
2022-11-19T10:34:24.336Z,8.45
2022-11-19T10:36:32.933Z,11.65
2022-11-19T10:38:41.464Z,8.95
2022-11-19T10:40:48.922Z,8.38
2022-11-19T10:42:55.370Z,10.40
2022-11-19T10:45:03.172Z,8.70
2022-11-19T10:47:28.984Z,9.90
2022-11-19T10:49:34.649Z,9.02
2022-11-19T10:51:41.858Z,26.30
2022-11-19T10:53:45.531Z,12.02
2022-11-19T10:55:54.438Z,9.13
2022-11-19T10:58:14.570Z,15.38
2022-11-19T11:00:17.536Z,14.90
2022-11-19T11:02:27.989Z,20.70
2022-11-19T11:04:30.618Z,13.15
2022-11-19T11:06:59.303Z,11.43
2022-11-19T11:09:00.947Z,15.65
2022-11-19T11:11:02.492Z,12.90
2022-11-19T11:13:44.034Z,10.40
2022-11-19T11:15:47.851Z,10.95
2022-11-19T11:18:04.893Z,14.32
2022-11-19T11:20:07.906Z,17.60
2022-11-19T11:22:09.624Z,17.08
2022-11-19T11:24:13.758Z,8.88
2022-11-19T11:26:21.041Z,10.32
2022-11-19T11:28:24.062Z,8.43
2022-11-19T11:30:25.642Z,8.18
2022-11-19T11:32:30.834Z,10.43
2022-11-19T11:34:36.650Z,8.35
2022-11-19T11:36:38.217Z,11.52
2022-11-19T11:38:48.064Z,36.67
2022-11-19T11:43:29.896Z,10.88
2022-11-19T11:45:33.975Z,8.57
2022-11-19T11:47:38.519Z,9.10
2022-11-19T11:49:46.776Z,8.88
2022-11-19T11:51:59.654Z,11.10
2022-11-19T11:54:21.246Z,8.88
2022-11-19T11:56:22.846Z,12.80
2022-11-19T11:58:27.180Z,17.58
2022-11-19T12:00:37.484Z,22.83
2022-11-19T12:02:39.087Z,10.05
2022-11-19T12:04:40.606Z,11.18
2022-11-19T12:06:53.598Z,9.20
2022-11-19T12:09:00.513Z,11.48
2022-11-19T12:11:02.109Z,9.30
2022-11-19T12:13:41.303Z,8.80
2022-11-19T12:16:03.726Z,8.63
2022-11-19T12:18:15.398Z,8.32
2022-11-19T12:20:23.738Z,17.10
2022-11-19T12:22:39.522Z,9.07
2022-11-19T12:24:40.905Z,7.70
2022-11-19T12:27:11.632Z,8.93
2022-11-19T12:29:21.858Z,11.43
2022-11-19T12:31:30.340Z,13.82
2022-11-19T12:33:50.453Z,21.58
2022-11-19T12:36:04.181Z,18.40
2022-11-19T12:38:36.316Z,40.33
2022-11-19T12:41:00.034Z,40.92
2022-11-19T12:43:21.386Z,52.22
2022-11-19T12:45:37.923Z,15.43
2022-11-19T12:48:04.283Z,36.45
2022-11-19T12:50:18.937Z,56.05
2022-11-19T12:53:06.286Z,76.15
2022-11-19T12:55:45.494Z,43.35
2022-11-19T12:57:59.213Z,26.15
2022-11-19T13:00:15.909Z,25.63
2022-11-19T13:02:28.564Z,23.73
2022-11-19T13:04:42.770Z,23.02
2022-11-19T13:06:57.923Z,38.38
2022-11-19T13:09:03.521Z,16.17
2022-11-19T13:11:10.671Z,11.70
2022-11-19T13:13:15.718Z,14.10
2022-11-19T13:15:20.366Z,6.32
2022-11-19T13:17:37.325Z,34.42
2022-11-19T13:19:39.924Z,12.93
2022-11-19T13:21:56.181Z,8.38
2022-11-19T13:24:06.781Z,18.52
2022-11-19T13:26:31.935Z,20.88
2022-11-19T13:28:43.875Z,53.58
2022-11-19T13:30:48.682Z,8.73
2022-11-19T13:33:19.361Z,9.95
2022-11-19T13:35:23.908Z,17.80
2022-11-19T13:37:45.692Z,21.50
2022-11-19T13:40:02.996Z,11.30
2022-11-19T13:42:26.045Z,19.98
2022-11-19T13:44:41.401Z,18.67
2022-11-19T13:46:54.993Z,18.33
2022-11-19T13:49:02.502Z,38.47
2022-11-19T13:51:09.818Z,20.70
2022-11-19T13:53:18.753Z,20.63
2022-11-19T13:55:29.033Z,13.65
2022-11-19T13:57:42.122Z,19.42
2022-11-19T13:59:46.599Z,18.77
2022-11-19T14:02:33.975Z,34.55
2022-11-19T14:04:52.283Z,24.30
2022-11-19T14:07:08.986Z,16.63
2022-11-19T14:09:35.193Z,23.58
2022-11-19T14:11:58.537Z,31.35
2022-11-19T14:14:05.942Z,12.15
2022-11-19T14:16:51.189Z,18.25
2022-11-19T14:19:18.975Z,9.10
2022-11-19T14:21:45.580Z,7.28
2022-11-19T14:24:09.610Z,15.07
2022-11-19T14:26:22.854Z,9.02
2022-11-19T14:28:40.542Z,9.68
2022-11-19T14:31:03.197Z,9.77
2022-11-19T14:33:43.496Z,9.60
2022-11-19T14:35:45.304Z,9.30
2022-11-19T14:37:53.007Z,8.45
2022-11-19T14:40:02.641Z,9.40
2022-11-19T14:42:22.215Z,10.13
2022-11-19T14:46:28.737Z,10.15
2022-11-19T14:48:40.587Z,8.82
2022-11-19T14:50:42.112Z,9.30
2022-11-19T14:52:52.943Z,9.13
2022-11-19T14:54:58.473Z,10.38
2022-11-19T14:57:07.573Z,13.82
2022-11-19T14:59:16.739Z,16.70
2022-11-19T15:01:21.275Z,18.58
2022-11-19T15:03:26.517Z,21.50
2022-11-19T15:05:33.297Z,29.67
2022-11-19T15:07:39.444Z,52.47
2022-11-19T15:10:03.515Z,48.47
2022-11-19T15:12:04.991Z,34.72
2022-11-19T15:14:29.739Z,66.88
2022-11-19T15:16:34.131Z,55.08
2022-11-19T15:18:41.503Z,54.30
2022-11-19T15:21:01.520Z,60.17
2022-11-19T15:23:10.569Z,65.00
2022-11-19T15:25:31.104Z,114.35
2022-11-19T15:28:00.232Z,118.55
2022-11-19T15:30:16.611Z,64.28
2022-11-19T15:32:33.202Z,78.53
2022-11-19T15:35:09.855Z,145.13
2022-11-19T15:37:15.678Z,61.35
2022-11-19T15:39:42.251Z,67.60
2022-11-19T15:42:00.448Z,45.17
2022-11-19T15:44:07.512Z,40.45
2022-11-19T15:46:32.995Z,28.85
2022-11-19T15:49:00.053Z,27.10
2022-11-19T15:51:03.236Z,22.77
2022-11-19T15:53:21.366Z,27.48
2022-11-19T15:55:27.832Z,36.47
2022-11-19T15:57:29.350Z,28.95
2022-11-19T15:59:34.893Z,27.30
2022-11-19T16:01:36.698Z,30.35
2022-11-19T16:03:39.214Z,31.63
2022-11-19T16:05:44.082Z,31.25
2022-11-19T16:07:48.807Z,33.40
2022-11-19T16:09:50.809Z,34.78
2022-11-19T16:12:11.528Z,34.83
2022-11-19T16:14:46.279Z,34.88
2022-11-19T16:17:10.318Z,36.95
2022-11-19T16:19:16.185Z,33.78
2022-11-19T16:21:32.768Z,48.72
2022-11-19T16:23:54.527Z,49.63
2022-11-19T16:26:01.926Z,48.80
2022-11-19T16:28:10.717Z,38.33
2022-11-19T16:30:20.249Z,38.75
2022-11-19T16:32:26.193Z,37.40
2022-11-19T16:34:32.762Z,37.28
2022-11-19T16:36:34.277Z,37.88
2022-11-19T16:38:36.286Z,40.13
2022-11-19T16:40:56.587Z,41.25
2022-11-19T16:43:00.602Z,31.98
2022-11-19T16:45:17.192Z,32.80
2022-11-19T16:47:27.339Z,26.60
2022-11-19T16:49:30.176Z,30.02
2022-11-19T16:51:53.678Z,28.35
2022-11-19T16:53:55.126Z,27.85
2022-11-19T16:55:57.256Z,22.88
2022-11-19T16:58:01.785Z,23.42
2022-11-19T17:00:13.632Z,23.80
2022-11-19T17:02:19.108Z,27.67
2022-11-19T17:04:21.935Z,31.63
2022-11-19T17:06:25.685Z,27.20
2022-11-19T17:08:36.793Z,24.88
2022-11-19T17:10:38.254Z,25.20
2022-11-19T17:12:54.045Z,22.85
2022-11-19T17:14:58.560Z,24.05
2022-11-19T17:17:00.360Z,24.17
2022-11-19T17:19:15.030Z,26.63
2022-11-19T17:21:25.903Z,29.85
2022-11-19T17:23:45.798Z,36.92
2022-11-19T17:25:49.654Z,39.83
2022-11-19T17:27:54.603Z,44.90
2022-11-19T17:30:01.891Z,55.58
2022-11-19T17:32:03.914Z,59.20
2022-11-19T17:34:12.398Z,61.47
2022-11-19T17:36:14.153Z,54.78
2022-11-19T17:38:35.330Z,48.00
2022-11-19T17:40:36.926Z,85.82
2022-11-19T17:42:56.836Z,48.38
2022-11-19T17:45:00.346Z,31.85
2022-11-19T17:47:22.330Z,30.25
2022-11-19T17:49:24.833Z,31.13
2022-11-19T17:51:26.782Z,34.88
2022-11-19T17:53:28.310Z,37.88
2022-11-19T17:55:30.726Z,38.83
2022-11-19T17:57:32.505Z,41.30
2022-11-19T17:59:33.966Z,79.97
2022-11-19T18:01:35.545Z,100.63
2022-11-19T18:03:39.160Z,41.75
2022-11-19T18:05:44.888Z,39.67
2022-11-19T18:07:46.705Z,35.13
2022-11-19T18:09:48.206Z,34.10
2022-11-19T18:11:49.719Z,33.50
2022-11-19T18:13:55.067Z,33.63
2022-11-19T18:15:57.713Z,69.22
2022-11-19T18:17:59.117Z,99.53
2022-11-19T18:20:00.582Z,63.22
2022-11-19T18:22:02.063Z,51.72
2022-11-19T18:24:03.722Z,48.20
2022-11-19T18:26:05.245Z,43.30
2022-11-19T18:28:06.693Z,45.67
2022-11-19T18:30:08.723Z,46.97
2022-11-19T18:32:12.175Z,39.40
2022-11-19T18:34:18.293Z,46.25
2022-11-19T18:36:20.407Z,73.45
2022-11-19T18:38:22.004Z,164.48
2022-11-19T18:40:23.649Z,125.95
2022-11-19T18:42:25.934Z,97.68
2022-11-19T18:44:34.281Z,94.80
2022-11-19T18:46:35.871Z,72.25
2022-11-19T18:48:37.353Z,58.38
2022-11-19T18:50:38.846Z,47.08
2022-11-19T18:52:40.347Z,48.92
2022-11-19T18:54:41.871Z,62.10
2022-11-19T18:56:43.353Z,95.97
2022-11-19T18:58:44.926Z,109.20
2022-11-19T19:00:46.365Z,123.72
2022-11-19T19:02:47.779Z,121.05
2022-11-19T19:04:51.010Z,119.15
2022-11-19T19:06:52.805Z,96.03
2022-11-19T19:08:54.338Z,88.70
2022-11-19T19:11:16.866Z,77.70
2022-11-19T19:13:18.285Z,71.35
2022-11-19T19:15:19.782Z,78.43
2022-11-19T19:17:21.825Z,74.70
2022-11-19T19:19:23.647Z,68.65
2022-11-19T19:21:25.328Z,67.53
2022-11-19T19:23:27.018Z,63.30
2022-11-19T19:25:28.498Z,56.35
2022-11-19T19:27:30.071Z,56.90
2022-11-19T19:29:31.566Z,67.95
2022-11-19T19:31:33.260Z,138.82
2022-11-19T19:33:35.015Z,75.07
2022-11-19T19:35:39.259Z,76.75
2022-11-19T19:37:42.478Z,66.80
2022-11-19T19:39:43.979Z,73.15
2022-11-19T19:41:45.543Z,67.72
2022-11-19T19:43:48.743Z,67.72
2022-11-19T19:45:50.227Z,72.15
2022-11-19T19:47:51.712Z,75.72
2022-11-19T19:49:53.293Z,93.88
2022-11-19T19:51:54.916Z,78.80
2022-11-19T19:53:57.017Z,68.65
2022-11-19T19:56:06.258Z,53.70
2022-11-19T19:58:08.362Z,44.95
2022-11-19T20:00:11.784Z,54.58
2022-11-19T20:02:13.324Z,63.50
2022-11-19T20:04:14.943Z,55.80
2022-11-19T20:06:18.638Z,48.25
2022-11-19T20:08:20.205Z,43.22
2022-11-19T20:10:21.737Z,41.65
2022-11-19T20:12:23.320Z,46.40
2022-11-19T20:14:24.906Z,45.28
2022-11-19T20:16:29.694Z,41.22
2022-11-19T20:18:32.163Z,62.97
2022-11-19T20:20:33.759Z,45.40
2022-11-19T20:22:35.327Z,59.42
2022-11-19T20:24:36.829Z,50.65
2022-11-19T20:26:39.390Z,45.72
2022-11-19T20:28:41.443Z,44.67
2022-11-19T20:30:43.030Z,50.55
2022-11-19T20:32:44.586Z,62.20
2022-11-19T20:34:46.155Z,58.50
2022-11-19T20:36:47.876Z,51.30
2022-11-19T20:38:49.525Z,48.97
2022-11-19T20:41:03.009Z,60.55
2022-11-19T20:43:22.965Z,59.80
2022-11-19T20:45:24.475Z,62.67
2022-11-19T20:47:25.999Z,62.22
2022-11-19T20:49:35.667Z,61.63
2022-11-19T20:51:37.677Z,73.95
2022-11-19T20:53:39.520Z,46.03
2022-11-19T20:56:03.940Z,44.40
2022-11-19T20:58:02.741Z,45.53
2022-11-19T21:00:05.358Z,57.08
2022-11-19T21:02:06.987Z,73.13
2022-11-19T21:04:10.811Z,76.40
2022-11-19T21:06:12.351Z,59.60
2022-11-19T21:08:14.485Z,72.57
2022-11-19T21:10:16.246Z,66.60
2022-11-19T21:12:17.722Z,63.25
2022-11-19T21:14:19.221Z,54.13
2022-11-19T21:16:23.827Z,52.28
2022-11-19T21:18:26.216Z,48.97
2022-11-19T21:20:27.775Z,55.47
2022-11-19T21:22:29.406Z,53.15
2022-11-19T21:24:30.829Z,58.50
2022-11-19T21:26:32.296Z,48.92
2022-11-19T21:28:34.835Z,70.88
2022-11-19T21:30:36.406Z,57.67
2022-11-19T21:32:38.036Z,72.22
2022-11-19T21:34:41.807Z,98.45
2022-11-19T21:36:44.572Z,90.55
2022-11-19T21:38:46.077Z,82.72
2022-11-19T21:40:53.208Z,60.33
2022-11-19T21:42:54.643Z,53.40
2022-11-19T21:44:56.144Z,74.72
2022-11-19T21:46:57.587Z,71.78
2022-11-19T21:48:59.093Z,62.95
2022-11-19T21:51:05.629Z,53.08
2022-11-19T21:53:08.799Z,51.85
2022-11-19T21:55:10.548Z,46.45
2022-11-19T21:57:11.945Z,42.90
2022-11-19T21:59:13.588Z,42.53
2022-11-19T22:01:15.264Z,44.22
2022-11-19T22:03:16.789Z,47.45
2022-11-19T22:05:18.204Z,52.72
2022-11-19T22:07:19.693Z,61.47
2022-11-19T22:09:21.373Z,66.63
2022-11-19T22:11:29.035Z,63.67
2022-11-19T22:13:30.500Z,82.25
2022-11-19T22:15:31.953Z,111.57
2022-11-19T22:17:33.876Z,115.25
2022-11-19T22:19:36.020Z,117.93
2022-11-19T22:21:37.855Z,74.55
2022-11-19T22:23:39.786Z,79.93
2022-11-19T22:25:41.229Z,85.90
2022-11-19T22:27:42.705Z,77.60
2022-11-19T22:29:44.235Z,84.45
2022-11-19T22:31:45.713Z,78.88
2022-11-19T22:33:49.731Z,76.55
2022-11-19T22:35:51.181Z,112.47
2022-11-19T22:37:52.632Z,85.72
2022-11-19T22:39:54.094Z,95.63
2022-11-19T22:41:55.514Z,94.78
2022-11-19T22:43:58.298Z,91.57
2022-11-19T22:46:00.315Z,96.72
2022-11-19T22:48:01.779Z,81.10
2022-11-19T22:50:03.383Z,87.22
2022-11-19T22:52:04.943Z,81.55
2022-11-19T22:54:08.699Z,75.65
2022-11-19T22:56:12.532Z,88.35
2022-11-19T22:58:14.177Z,90.82
2022-11-19T23:00:43.075Z,77.72
2022-11-19T23:02:44.524Z,61.47
2022-11-19T23:04:45.966Z,62.38
2022-11-19T23:06:47.406Z,70.47
2022-11-19T23:08:49.418Z,67.10
2022-11-19T23:11:02.441Z,70.05
2022-11-19T23:13:23.094Z,82.22
2022-11-19T23:15:24.549Z,70.55
2022-11-19T23:17:26.072Z,66.35
2022-11-19T23:19:27.647Z,74.70
2022-11-19T23:21:29.536Z,72.63
2022-11-19T23:23:31.227Z,66.15
2022-11-19T23:25:32.639Z,72.85
2022-11-19T23:27:34.036Z,87.90
2022-11-19T23:29:35.475Z,65.88
2022-11-19T23:31:40.689Z,65.78
2022-11-19T23:33:42.499Z,52.28
2022-11-19T23:35:44.033Z,55.00
2022-11-19T23:37:45.522Z,51.63
2022-11-19T23:39:46.928Z,57.70
2022-11-19T23:41:48.465Z,56.00
2022-11-19T23:43:51.136Z,54.22
2022-11-19T23:45:52.641Z,54.53
2022-11-19T23:47:54.069Z,53.95
2022-11-19T23:49:55.640Z,55.08
2022-11-19T23:51:57.077Z,75.35
2022-11-19T23:53:58.982Z,79.90
2022-11-19T23:56:00.609Z,72.75
2022-11-19T23:58:02.062Z,68.60
